Time;durP1;ratioP1;P1;durP2;ratioP2;P2;SDS_P1;SDS_P2;PMS_P1;PMS_P2;Temp;Humidity;BMP_temperature;BMP_pressure;BME280_temperature;BME280_humidity;BME280_pressure;Samples;Min_cycle;Max_cycle;Signal;HPM_P1;HPM_P2
2022/02/07 00:00:45;;;;;;;0.00;0.00;;;;;;;;;;4953843;28;20234;-73
2022/02/07 00:05:42;;;;;;;0.10;0.10;;;;;;;;;;4951498;28;20235;-72
2022/02/07 00:08:11;;;;;;;0.20;0.20;;;;;;;;;;4946149;28;20319;-73
2022/02/07 00:10:40;;;;;;;0.10;0.10;;;;;;;;;;4937543;28;20239;-72
2022/02/07 00:13:06;;;;;;;0.10;0.10;;;;;;;;;;4970511;28;20232;-73
2022/02/07 00:15:32;;;;;;;0.10;0.10;;;;;;;;;;4988397;28;20226;-73
2022/02/07 00:17:59;;;;;;;0.10;0.10;;;;;;;;;;4972629;28;20257;-73
2022/02/07 00:20:30;;;;;;;0.10;0.10;;;;;;;;;;4971741;28;20712;-73
2022/02/07 00:22:55;;;;;;;0.10;0.10;;;;;;;;;;4956338;28;20700;-72
2022/02/07 00:25:25;;;;;;;0.10;0.10;;;;;;;;;;4957132;28;20230;-73
2022/02/07 00:27:54;;;;;;;0.10;0.10;;;;;;;;;;4956497;28;20615;-73
2022/02/07 00:30:22;;;;;;;0.10;0.10;;;;;;;;;;4955566;28;20301;-72
2022/02/07 00:32:50;;;;;;;0.10;0.10;;;;;;;;;;4955776;28;20792;-74
2022/02/07 00:35:18;;;;;;;0.10;0.10;;;;;;;;;;4954070;28;20573;-72
2022/02/07 00:37:45;;;;;;;0.10;0.10;;;;;;;;;;4965663;28;20724;-73
2022/02/07 00:40:29;;;;;;;0.00;0.00;;;;;;;;;;4921195;28;20638;-74
2022/02/07 00:43:15;;;;;;;0.00;0.00;;;;;;;;;;4951221;28;20223;-73
2022/02/07 00:45:53;;;;;;;0.10;0.10;;;;;;;;;;4987326;28;20734;-72
2022/02/07 00:48:25;;;;;;;0.10;0.10;;;;;;;;;;4971797;28;20354;-72
2022/02/07 00:50:55;;;;;;;0.00;0.00;;;;;;;;;;4972423;28;20237;-73
2022/02/07 00:53:26;;;;;;;0.67;0.57;;;;;;;;;;4955147;28;20221;-74
2022/02/07 00:55:53;;;;;;;0.20;0.20;;;;;;;;;;4971845;28;20229;-73
2022/02/07 00:58:18;;;;;;;0.10;0.10;;;;;;;;;;4955815;28;20225;-73
2022/02/07 01:00:46;;;;;;;0.10;0.10;;;;;;;;;;4955311;28;20234;-73
2022/02/07 01:03:17;;;;;;;1.13;0.53;;;;;;;;;;4955099;28;20611;-73
2022/02/07 01:05:45;;;;;;;0.10;0.10;;;;;;;;;;4965803;28;20285;-73
2022/02/07 01:08:19;;;;;;;0.10;0.10;;;;;;;;;;4985706;28;20225;-71
2022/02/07 01:11:00;;;;;;;0.10;0.10;;;;;;;;;;4972016;28;20240;-73
2022/02/07 01:13:49;;;;;;;0.10;0.10;;;;;;;;;;4970657;28;20229;-72
2022/02/07 01:16:48;;;;;;;1.60;1.17;;;;;;;;;;4957563;28;20268;-74
2022/02/07 01:52:56;;;;;;;0.10;0.10;;;;;;;;;;4955376;28;20226;-72
2022/02/07 01:57:56;;;;;;;0.10;0.10;;;;;;;;;;4949749;28;20279;-72
2022/02/07 02:00:26;;;;;;;0.10;0.10;;;;;;;;;;4985555;28;20233;-73
2022/02/07 02:02:58;;;;;;;0.10;0.10;;;;;;;;;;4939991;28;20268;-72
2022/02/07 02:05:56;;;;;;;0.10;0.10;;;;;;;;;;4952507;28;20643;-72
2022/02/07 02:08:38;;;;;;;0.10;0.10;;;;;;;;;;4958813;28;20222;-72
2022/02/07 02:11:06;;;;;;;0.17;0.17;;;;;;;;;;4949821;28;20230;-73
2022/02/07 02:16:25;;;;;;;0.00;0.00;;;;;;;;;;4959813;28;20336;-72
2022/02/07 02:22:43;;;;;;;0.30;0.30;;;;;;;;;;4957586;28;20225;-72
2022/02/07 02:46:52;;;;;;;0.10;0.10;;;;;;;;;;4963063;28;20222;-74
2022/02/07 02:49:24;;;;;;;0.30;0.30;;;;;;;;;;4958210;28;20214;-73
2022/02/07 02:51:50;;;;;;;0.10;0.10;;;;;;;;;;4974468;28;20246;-73
2022/02/07 02:54:18;;;;;;;0.20;0.20;;;;;;;;;;4973862;28;20217;-73
2022/02/07 02:56:43;;;;;;;0.03;0.03;;;;;;;;;;4957890;28;20268;-74
2022/02/07 02:59:10;;;;;;;0.10;0.10;;;;;;;;;;4957180;28;20686;-72
2022/02/07 03:01:38;;;;;;;0.10;0.10;;;;;;;;;;4973628;28;20229;-71
2022/02/07 03:04:14;;;;;;;0.10;0.10;;;;;;;;;;4960405;28;20253;-74
2022/02/07 03:06:41;;;;;;;0.10;0.10;;;;;;;;;;4949917;28;20218;-73
2022/02/07 03:09:13;;;;;;;0.10;0.10;;;;;;;;;;4941647;28;20631;-73
2022/02/07 03:11:42;;;;;;;0.10;0.10;;;;;;;;;;4925048;29;20717;-73
2022/02/07 03:14:19;;;;;;;0.10;0.10;;;;;;;;;;4925408;28;20755;-73
2022/02/07 03:16:48;;;;;;;0.27;0.27;;;;;;;;;;4960006;28;20288;-72
2022/02/07 03:19:15;;;;;;;0.10;0.10;;;;;;;;;;4938065;28;20289;-74
2022/02/07 03:21:44;;;;;;;0.00;0.00;;;;;;;;;;4973558;28;20837;-73
2022/02/07 03:24:11;;;;;;;0.13;0.13;;;;;;;;;;4956592;28;20717;-73
2022/02/07 03:26:50;;;;;;;0.10;0.10;;;;;;;;;;4960807;28;20226;-72
2022/02/07 03:29:28;;;;;;;0.10;0.10;;;;;;;;;;4955783;28;20754;-74
2022/02/07 03:31:58;;;;;;;0.93;0.93;;;;;;;;;;4963019;28;20370;-73
2022/02/07 03:34:47;;;;;;;0.10;0.10;;;;;;;;;;4975731;28;20214;-73
2022/02/07 03:37:17;;;;;;;0.10;0.10;;;;;;;;;;4949628;28;20222;-72
2022/02/07 03:39:45;;;;;;;0.10;0.10;;;;;;;;;;4973395;28;20218;-73
2022/02/07 03:42:14;;;;;;;2.53;0.80;;;;;;;;;;4940540;28;20268;-74
2022/02/07 03:44:47;;;;;;;2.47;0.87;;;;;;;;;;4958192;28;20222;-72
2022/02/07 03:47:14;;;;;;;6.70;1.87;;;;;;;;;;4972755;28;20281;-73
2022/02/07 03:49:39;;;;;;;5.10;1.13;;;;;;;;;;4956462;28;20222;-72
2022/02/07 03:52:08;;;;;;;6.07;1.13;;;;;;;;;;4972314;28;20635;-73
2022/02/07 03:54:41;;;;;;;2.17;0.87;;;;;;;;;;4957324;28;20621;-73
2022/02/07 03:57:09;;;;;;;4.27;1.17;;;;;;;;;;4972259;28;20249;-72
2022/02/07 03:59:35;;;;;;;4.33;1.27;;;;;;;;;;4953076;28;20230;-73
2022/02/07 04:02:01;;;;;;;3.40;1.03;;;;;;;;;;4953252;28;20226;-73
2022/02/07 04:04:36;;;;;;;5.90;1.07;;;;;;;;;;4927490;28;20234;-73
2022/02/07 04:07:07;;;;;;;5.20;1.33;;;;;;;;;;4956170;28;20230;-72
2022/02/07 04:09:40;;;;;;;4.93;1.37;;;;;;;;;;4953056;28;20601;-72
2022/02/07 04:12:13;;;;;;;4.53;1.07;;;;;;;;;;4972436;28;20226;-73
2022/02/07 04:14:55;;;;;;;3.53;1.27;;;;;;;;;;4959531;28;20226;-73
2022/02/07 04:17:25;;;;;;;3.90;1.00;;;;;;;;;;4988746;28;20701;-73
2022/02/07 04:19:59;;;;;;;2.23;0.83;;;;;;;;;;4957482;28;20237;-73
2022/02/07 04:22:36;;;;;;;2.70;0.70;;;;;;;;;;4953883;28;20234;-73
2022/02/07 04:25:13;;;;;;;6.83;0.77;;;;;;;;;;4923808;28;20317;-73
2022/02/07 04:27:49;;;;;;;1.33;0.47;;;;;;;;;;4958233;28;20221;-73
2022/02/07 04:30:17;;;;;;;0.70;0.50;;;;;;;;;;4987975;28;20226;-73
2022/02/07 04:32:44;;;;;;;0.30;0.30;;;;;;;;;;4972260;28;20233;-72
2022/02/07 04:35:14;;;;;;;1.40;0.60;;;;;;;;;;4970290;28;20707;-74
2022/02/07 04:37:42;;;;;;;1.70;0.60;;;;;;;;;;4968588;28;20246;-73
2022/02/07 04:40:11;;;;;;;0.30;0.30;;;;;;;;;;4951718;28;20593;-73
2022/02/07 04:42:40;;;;;;;1.47;0.60;;;;;;;;;;4971828;28;20730;-73
2022/02/07 04:47:45;;;;;;;1.50;0.60;;;;;;;;;;4956626;28;20226;-73
2022/02/07 04:53:14;;;;;;;4.07;0.90;;;;;;;;;;4954354;28;20289;-74
2022/02/07 04:56:13;;;;;;;4.63;0.87;;;;;;;;;;4957416;28;20219;-73
2022/02/07 04:59:04;;;;;;;2.80;0.80;;;;;;;;;;4969665;28;20229;-74
2022/02/07 05:01:35;;;;;;;2.87;1.00;;;;;;;;;;4948454;28;21000;-75
2022/02/07 05:04:22;;;;;;;3.83;0.87;;;;;;;;;;4952507;28;20218;-73
2022/02/07 05:15:12;;;;;;;7.90;1.20;;;;;;;;;;4956094;28;20296;-72
2022/02/07 05:17:39;;;;;;;3.13;0.90;;;;;;;;;;4952252;28;20219;-72
2022/02/07 05:20:45;;;;;;;8.00;1.33;;;;;;;;;;4978287;28;20233;-72
2022/02/07 05:23:32;;;;;;;4.83;1.20;;;;;;;;;;4956762;28;20968;-72
2022/02/07 05:26:23;;;;;;;8.33;1.33;;;;;;;;;;4943623;28;20226;-72
2022/02/07 05:29:27;;;;;;;7.37;0.90;;;;;;;;;;4975297;28;20256;-74
2022/02/07 05:32:17;;;;;;;4.87;1.00;;;;;;;;;;4978166;28;20222;-72
2022/02/07 05:34:51;;;;;;;7.47;1.20;;;;;;;;;;4971098;28;20225;-72
2022/02/07 05:37:49;;;;;;;9.40;1.60;;;;;;;;;;4957902;28;20261;-72
2022/02/07 05:40:41;;;;;;;6.53;1.10;;;;;;;;;;4938636;28;20227;-72
2022/02/07 05:43:21;;;;;;;10.30;1.80;;;;;;;;;;4954467;28;20257;-71
2022/02/07 05:46:12;;;;;;;11.53;1.83;;;;;;;;;;4971167;28;20788;-72
2022/02/07 05:49:11;;;;;;;11.07;1.87;;;;;;;;;;4963423;28;20219;-71
2022/02/07 05:51:50;;;;;;;9.30;1.73;;;;;;;;;;4926373;28;20222;-71
2022/02/07 05:54:31;;;;;;;9.23;1.77;;;;;;;;;;4957228;28;20229;-71
2022/02/07 05:57:14;;;;;;;11.93;1.90;;;;;;;;;;4968195;28;20313;-71
2022/02/07 06:00:03;;;;;;;13.63;1.83;;;;;;;;;;4940597;28;20233;-71
2022/02/07 06:02:41;;;;;;;15.07;2.30;;;;;;;;;;4959422;28;20240;-71
2022/02/07 06:05:13;;;;;;;14.70;2.50;;;;;;;;;;4970593;28;20317;-71
2022/02/07 06:07:39;;;;;;;13.13;2.47;;;;;;;;;;4970664;28;20230;-71
2022/02/07 06:10:05;;;;;;;17.47;2.50;;;;;;;;;;4939068;28;20249;-71
2022/02/07 06:12:37;;;;;;;12.57;2.50;;;;;;;;;;4952890;28;20329;-72
2022/02/07 06:15:07;;;;;;;12.10;2.17;;;;;;;;;;4971637;28;20891;-72
2022/02/07 06:17:33;;;;;;;14.90;2.37;;;;;;;;;;4943238;28;20700;-72
2022/02/07 06:20:03;;;;;;;19.10;2.30;;;;;;;;;;4957830;28;20218;-73
2022/02/07 06:22:33;;;;;;;17.83;2.30;;;;;;;;;;4957659;28;20225;-73
2022/02/07 06:25:03;;;;;;;15.27;2.27;;;;;;;;;;4959012;28;20794;-73
2022/02/07 06:27:29;;;;;;;14.30;2.60;;;;;;;;;;4975746;28;20226;-72
2022/02/07 06:29:56;;;;;;;17.30;3.00;;;;;;;;;;4949926;28;20227;-72
2022/02/07 06:32:21;;;;;;;14.17;2.70;;;;;;;;;;4989515;28;22229;-72
2022/02/07 06:34:50;;;;;;;14.63;2.93;;;;;;;;;;4973946;28;20221;-71
2022/02/07 06:37:21;;;;;;;12.60;3.10;;;;;;;;;;4978097;28;20218;-71
2022/02/07 06:39:46;;;;;;;16.57;2.50;;;;;;;;;;4974082;28;20218;-71
2022/02/07 06:42:13;;;;;;;9.70;2.33;;;;;;;;;;4954818;28;20697;-71
2022/02/07 06:44:41;;;;;;;13.67;2.40;;;;;;;;;;4974371;28;20230;-71
2022/02/07 06:47:11;;;;;;;12.93;2.67;;;;;;;;;;4973554;28;20305;-70
2022/02/07 06:49:42;;;;;;;15.30;2.73;;;;;;;;;;4974991;28;20593;-70
2022/02/07 06:52:09;;;;;;;11.90;2.57;;;;;;;;;;4941285;28;20234;-70
2022/02/07 06:54:37;;;;;;;13.77;2.77;;;;;;;;;;4974678;28;20249;-70
2022/02/07 06:57:03;;;;;;;18.37;3.10;;;;;;;;;;4957958;28;20226;-71
2022/02/07 06:59:35;;;;;;;12.87;2.67;;;;;;;;;;4958090;28;20233;-71
2022/02/07 07:02:03;;;;;;;17.73;2.97;;;;;;;;;;4989630;28;20226;-72
2022/02/07 07:04:30;;;;;;;21.73;3.07;;;;;;;;;;4973301;28;20598;-71
2022/02/07 07:06:58;;;;;;;21.20;3.23;;;;;;;;;;4964616;28;20225;-70
2022/02/07 07:09:25;;;;;;;18.37;3.27;;;;;;;;;;4969728;28;20214;-72
2022/02/07 07:11:56;;;;;;;17.67;3.70;;;;;;;;;;4974039;28;20230;-70
2022/02/07 07:17:09;;;;;;;18.60;3.57;;;;;;;;;;4960577;28;20230;-71
2022/02/07 07:19:45;;;;;;;15.13;2.87;;;;;;;;;;4971325;28;20720;-70
2022/02/07 07:22:14;;;;;;;15.83;3.03;;;;;;;;;;4978552;28;20222;-71
2022/02/07 07:24:42;;;;;;;15.43;3.03;;;;;;;;;;4972839;28;20234;-70
2022/02/07 07:27:12;;;;;;;25.30;3.77;;;;;;;;;;4957914;28;20232;-71
2022/02/07 07:29:45;;;;;;;18.97;3.73;;;;;;;;;;4970313;28;20222;-72
2022/02/07 07:32:21;;;;;;;12.60;2.97;;;;;;;;;;4938774;28;20234;-71
2022/02/07 07:34:47;;;;;;;13.93;2.83;;;;;;;;;;4965511;28;20257;-71
2022/02/07 07:37:17;;;;;;;18.57;2.83;;;;;;;;;;4978590;28;20214;-70
2022/02/07 07:39:46;;;;;;;18.00;3.33;;;;;;;;;;4935184;28;20305;-72
2022/02/07 07:42:12;;;;;;;19.23;3.13;;;;;;;;;;4956961;28;20222;-70
2022/02/07 07:44:59;;;;;;;18.07;3.07;;;;;;;;;;4974341;28;20296;-70
2022/02/07 07:47:47;;;;;;;19.07;3.87;;;;;;;;;;4972394;28;20229;-71
2022/02/07 07:50:25;;;;;;;16.13;3.00;;;;;;;;;;4973796;28;20222;-71
2022/02/07 07:53:10;;;;;;;21.37;3.50;;;;;;;;;;4973169;28;20703;-70
2022/02/07 08:02:13;;;;;;;21.00;3.47;;;;;;;;;;4959122;28;20225;-70
2022/02/07 08:04:40;;;;;;;19.30;3.40;;;;;;;;;;4972625;28;20582;-71
2022/02/07 08:07:20;;;;;;;16.37;3.60;;;;;;;;;;4963684;28;20625;-71
2022/02/07 08:12:27;;;;;;;17.50;2.93;;;;;;;;;;4942626;28;20703;-70
2022/02/07 08:14:53;;;;;;;15.87;3.00;;;;;;;;;;4950628;28;20218;-71
2022/02/07 08:17:21;;;;;;;14.47;3.73;;;;;;;;;;4972345;28;20226;-71
2022/02/07 08:19:52;;;;;;;13.60;2.70;;;;;;;;;;4957151;28;20226;-72
2022/02/07 08:22:23;;;;;;;13.37;3.00;;;;;;;;;;4971953;28;20242;-72
2022/02/07 08:25:00;;;;;;;15.93;3.00;;;;;;;;;;4957514;28;20226;-71
2022/02/07 08:27:31;;;;;;;12.60;2.50;;;;;;;;;;4942290;28;20284;-71
2022/02/07 08:29:57;;;;;;;19.10;2.97;;;;;;;;;;4972515;28;20317;-70
2022/02/07 08:32:23;;;;;;;18.27;3.00;;;;;;;;;;4971575;28;20627;-72
2022/02/07 08:34:49;;;;;;;14.53;3.20;;;;;;;;;;4972098;28;20272;-71
2022/02/07 08:37:17;;;;;;;22.10;3.50;;;;;;;;;;4961446;28;20617;-71
2022/02/07 08:39:45;;;;;;;12.93;3.13;;;;;;;;;;4937169;28;20227;-71
2022/02/07 08:42:15;;;;;;;8.40;2.43;;;;;;;;;;4936428;28;20713;-71
2022/02/07 08:44:40;;;;;;;14.53;3.13;;;;;;;;;;4955912;28;20646;-71
2022/02/07 08:47:06;;;;;;;12.67;2.83;;;;;;;;;;4971946;28;20226;-70
2022/02/07 08:49:35;;;;;;;10.83;2.90;;;;;;;;;;4971254;28;20222;-72
2022/02/07 08:52:03;;;;;;;8.77;2.20;;;;;;;;;;4970805;28;20259;-70
2022/02/07 08:54:29;;;;;;;14.93;2.83;;;;;;;;;;4972429;28;20654;-72
2022/02/07 08:57:00;;;;;;;18.97;2.90;;;;;;;;;;4972641;28;20360;-70
2022/02/07 08:59:37;;;;;;;12.07;2.67;;;;;;;;;;4972873;28;20222;-71
2022/02/07 09:07:23;;;;;;;11.10;2.63;;;;;;;;;;4946944;28;20230;-73
2022/02/07 09:09:52;;;;;;;14.77;3.63;;;;;;;;;;4938535;28;20234;-70
2022/02/07 09:12:18;;;;;;;13.60;3.10;;;;;;;;;;4972271;28;20245;-71
2022/02/07 09:14:59;;;;;;;15.60;3.47;;;;;;;;;;4971910;28;20250;-71
2022/02/07 09:17:29;;;;;;;13.87;3.07;;;;;;;;;;4939075;28;20633;-72
2022/02/07 09:19:55;;;;;;;16.80;3.10;;;;;;;;;;4952791;28;20229;-70
2022/02/07 09:22:25;;;;;;;17.10;3.90;;;;;;;;;;4972141;28;20233;-71
2022/02/07 09:24:53;;;;;;;15.10;3.50;;;;;;;;;;4971021;28;20313;-70
2022/02/07 09:27:19;;;;;;;16.43;3.73;;;;;;;;;;4967242;28;20226;-71
2022/02/07 09:29:47;;;;;;;11.87;3.73;;;;;;;;;;4971378;28;20233;-71
2022/02/07 09:32:12;;;;;;;14.93;3.90;;;;;;;;;;4986518;28;20652;-71
2022/02/07 09:34:47;;;;;;;23.57;4.10;;;;;;;;;;4965912;28;20214;-71
2022/02/07 09:37:15;;;;;;;16.27;3.90;;;;;;;;;;4967255;28;20242;-71
2022/02/07 09:39:41;;;;;;;15.27;3.93;;;;;;;;;;4952158;28;20650;-71
2022/02/07 09:42:06;;;;;;;19.57;4.60;;;;;;;;;;4982522;28;20313;-71
2022/02/07 09:44:41;;;;;;;19.77;4.80;;;;;;;;;;4954052;28;20666;-70
2022/02/07 09:47:09;;;;;;;23.97;4.13;;;;;;;;;;4956921;28;20253;-71
2022/02/07 09:49:38;;;;;;;22.60;4.83;;;;;;;;;;4971515;28;20234;-71
2022/02/07 09:52:09;;;;;;;22.43;5.17;;;;;;;;;;4954420;28;20851;-72
2022/02/07 09:54:35;;;;;;;23.50;4.80;;;;;;;;;;4971581;28;20657;-71
2022/02/07 09:57:00;;;;;;;27.43;5.50;;;;;;;;;;4955297;28;20234;-71
2022/02/07 09:59:30;;;;;;;25.23;5.80;;;;;;;;;;4970263;28;20226;-72
2022/02/07 10:01:59;;;;;;;27.80;9.73;;;;;;;;;;4950414;28;20250;-71
2022/02/07 10:04:32;;;;;;;27.43;7.53;;;;;;;;;;4953246;28;20242;-71
2022/02/07 10:07:30;;;;;;;17.37;4.47;;;;;;;;;;4950702;28;20226;-71
2022/02/07 10:11:16;;;;;;;22.83;5.90;;;;;;;;;;4955091;28;20272;-71
2022/02/07 10:15:53;;;;;;;22.50;4.50;;;;;;;;;;4956554;28;20610;-71
2022/02/07 10:46:07;;;;;;;18.00;5.33;;;;;;;;;;4974761;28;20803;-72
2022/02/07 10:48:37;;;;;;;17.37;4.83;;;;;;;;;;4956255;28;20280;-73
2022/02/07 10:51:05;;;;;;;16.37;4.80;;;;;;;;;;4966367;28;20708;-71
2022/02/07 10:53:33;;;;;;;16.00;4.60;;;;;;;;;;4969397;28;20355;-71
2022/02/07 10:56:02;;;;;;;15.33;3.70;;;;;;;;;;4954420;28;20241;-72
2022/02/07 10:58:31;;;;;;;17.40;4.40;;;;;;;;;;4963788;28;20715;-72
2022/02/07 11:01:20;;;;;;;17.97;4.83;;;;;;;;;;4958913;28;20215;-73
2022/02/07 11:03:51;;;;;;;19.77;4.57;;;;;;;;;;4975977;28;20222;-73
2022/02/07 11:06:36;;;;;;;16.00;3.27;;;;;;;;;;4966236;28;20265;-72
2022/02/07 11:09:13;;;;;;;19.67;4.13;;;;;;;;;;4945896;28;20293;-75
2022/02/07 11:17:11;;;;;;;12.93;3.13;;;;;;;;;;4940374;28;20967;-73
2022/02/07 11:22:40;;;;;;;14.53;3.80;;;;;;;;;;4956439;28;20234;-72
2022/02/07 11:27:31;;;;;;;13.40;4.10;;;;;;;;;;4973013;28;20237;-73
2022/02/07 11:30:00;;;;;;;13.73;3.90;;;;;;;;;;4968978;28;20223;-72
2022/02/07 11:32:44;;;;;;;13.60;3.67;;;;;;;;;;4924009;28;20222;-72
2022/02/07 11:35:56;;;;;;;13.47;3.40;;;;;;;;;;4972420;28;20798;-73
2022/02/07 11:38:26;;;;;;;16.10;3.53;;;;;;;;;;4960098;28;20241;-72
2022/02/07 11:40:55;;;;;;;12.43;2.93;;;;;;;;;;4973418;28;20285;-72
2022/02/07 11:43:23;;;;;;;18.63;4.10;;;;;;;;;;4973887;28;20704;-72
2022/02/07 11:45:56;;;;;;;16.63;5.07;;;;;;;;;;4972391;28;20238;-74
2022/02/07 11:48:55;;;;;;;11.27;2.53;;;;;;;;;;4971484;28;20245;-74
2022/02/07 11:51:30;;;;;;;4.20;1.37;;;;;;;;;;4956237;28;20213;-73
2022/02/07 11:54:05;;;;;;;7.07;1.90;;;;;;;;;;4956229;28;20252;-73
2022/02/07 11:56:59;;;;;;;4.53;1.30;;;;;;;;;;4972926;28;20310;-72
2022/02/07 11:59:38;;;;;;;5.87;2.00;;;;;;;;;;4987857;28;20309;-72
2022/02/07 12:02:17;;;;;;;14.90;3.40;;;;;;;;;;4984025;28;20237;-72
2022/02/07 12:04:47;;;;;;;6.63;2.20;;;;;;;;;;4984128;28;20233;-73
2022/02/07 12:07:18;;;;;;;12.23;3.03;;;;;;;;;;5003320;28;20226;-73
2022/02/07 12:10:00;;;;;;;6.97;3.30;;;;;;;;;;5003179;28;20229;-73
2022/02/07 12:12:45;;;;;;;14.97;6.43;;;;;;;;;;4987703;28;20264;-72
2022/02/07 12:15:34;;;;;;;25.67;11.40;;;;;;;;;;4955661;28;20241;-73
2022/02/07 12:18:14;;;;;;;11.93;3.70;;;;;;;;;;4941614;28;20305;-73
2022/02/07 12:20:48;;;;;;;12.20;3.20;;;;;;;;;;4968259;28;20257;-73
2022/02/07 12:23:31;;;;;;;14.10;2.67;;;;;;;;;;4957207;28;20759;-73
2022/02/07 12:26:12;;;;;;;10.23;2.80;;;;;;;;;;4958316;28;20236;-73
2022/02/07 12:28:43;;;;;;;14.53;4.50;;;;;;;;;;4973885;28;20994;-73
2022/02/07 12:34:06;;;;;;;13.30;2.63;;;;;;;;;;4972836;28;20226;-73
2022/02/07 12:36:35;;;;;;;15.63;4.17;;;;;;;;;;4972774;28;20941;-73
2022/02/07 12:39:09;;;;;;;10.87;3.60;;;;;;;;;;4964502;28;20217;-72
2022/02/07 12:41:34;;;;;;;11.23;2.70;;;;;;;;;;4940003;28;20237;-73
2022/02/07 12:44:00;;;;;;;9.00;2.53;;;;;;;;;;4972718;28;20230;-76
2022/02/07 12:46:28;;;;;;;8.10;2.30;;;;;;;;;;4973111;28;20364;-73
2022/02/07 12:48:58;;;;;;;11.07;2.67;;;;;;;;;;4956307;28;20206;-72
2022/02/07 12:51:42;;;;;;;9.33;2.00;;;;;;;;;;4955518;28;20302;-73
2022/02/07 12:54:10;;;;;;;9.53;2.80;;;;;;;;;;4957374;28;20699;-72
2022/02/07 12:56:39;;;;;;;10.10;2.33;;;;;;;;;;4951642;28;20730;-74
2022/02/07 12:59:07;;;;;;;7.13;2.23;;;;;;;;;;4951654;28;20223;-73
2022/02/07 13:01:42;;;;;;;12.10;3.97;;;;;;;;;;4970248;28;20230;-73
2022/02/07 13:04:19;;;;;;;11.73;3.13;;;;;;;;;;4953688;28;20214;-74
2022/02/07 13:06:49;;;;;;;10.63;2.67;;;;;;;;;;4948359;28;20245;-71
2022/02/07 13:09:33;;;;;;;13.60;3.63;;;;;;;;;;4964713;28;20308;-71
2022/02/07 13:14:31;;;;;;;15.43;4.00;;;;;;;;;;4973929;28;20229;-71
2022/02/07 13:16:58;;;;;;;10.53;2.63;;;;;;;;;;4939765;28;20257;-73
2022/02/07 13:19:25;;;;;;;8.40;2.50;;;;;;;;;;4955129;28;20221;-71
2022/02/07 13:21:56;;;;;;;9.83;2.43;;;;;;;;;;4972257;28;20273;-71
2022/02/07 13:24:30;;;;;;;11.30;2.63;;;;;;;;;;4959834;28;20227;-71
2022/02/07 13:26:56;;;;;;;9.27;2.43;;;;;;;;;;4952931;28;20228;-72
2022/02/07 13:29:26;;;;;;;15.70;2.93;;;;;;;;;;4962481;28;20234;-71
2022/02/07 13:32:13;;;;;;;10.60;2.50;;;;;;;;;;4951781;28;20356;-73
2022/02/07 13:34:39;;;;;;;10.07;2.37;;;;;;;;;;4970334;28;20362;-71
2022/02/07 13:37:07;;;;;;;9.13;2.33;;;;;;;;;;4953923;28;20218;-72
2022/02/07 13:40:21;;;;;;;9.67;2.47;;;;;;;;;;4949715;28;20700;-73
2022/02/07 13:42:54;;;;;;;10.07;2.60;;;;;;;;;;4949183;28;20737;-73
2022/02/07 13:45:22;;;;;;;9.77;2.83;;;;;;;;;;4982007;28;20578;-73
2022/02/07 13:47:52;;;;;;;10.03;2.83;;;;;;;;;;4948295;28;20731;-72
2022/02/07 13:50:22;;;;;;;10.10;2.47;;;;;;;;;;4962676;28;20262;-73
2022/02/07 13:52:49;;;;;;;8.77;2.13;;;;;;;;;;4954554;28;20226;-73
2022/02/07 13:55:35;;;;;;;10.70;2.60;;;;;;;;;;4970771;28;20300;-74
2022/02/07 13:58:08;;;;;;;11.23;2.77;;;;;;;;;;4970946;28;20297;-73
2022/02/07 14:00:37;;;;;;;11.57;3.37;;;;;;;;;;4970771;28;20229;-72
2022/02/07 14:03:16;;;;;;;8.07;2.50;;;;;;;;;;4970234;28;20234;-72
2022/02/07 14:05:46;;;;;;;12.20;3.50;;;;;;;;;;4971562;28;20276;-71
2022/02/07 14:08:12;;;;;;;8.37;2.27;;;;;;;;;;4962517;28;20253;-69
2022/02/07 14:10:38;;;;;;;7.00;1.60;;;;;;;;;;4954877;28;20229;-69
2022/02/07 14:13:14;;;;;;;9.43;2.20;;;;;;;;;;4938233;28;20226;-71
2022/02/07 14:15:40;;;;;;;12.07;3.47;;;;;;;;;;4969550;28;20230;-71
2022/02/07 14:18:09;;;;;;;8.03;2.00;;;;;;;;;;4981311;28;20222;-72
2022/02/07 14:20:36;;;;;;;6.43;2.37;;;;;;;;;;4969276;28;20229;-71
2022/02/07 14:23:05;;;;;;;9.77;3.00;;;;;;;;;;4970890;28;20653;-71
2022/02/07 14:25:33;;;;;;;10.37;2.20;;;;;;;;;;4941862;28;20234;-72
2022/02/07 14:28:00;;;;;;;8.97;2.23;;;;;;;;;;4970028;28;20586;-72
2022/02/07 14:30:30;;;;;;;11.50;2.03;;;;;;;;;;4952842;28;20257;-71
2022/02/07 14:32:57;;;;;;;8.83;2.53;;;;;;;;;;4971597;28;20222;-71
2022/02/07 14:35:23;;;;;;;8.77;2.23;;;;;;;;;;4974130;28;20685;-70
2022/02/07 14:37:51;;;;;;;12.60;3.13;;;;;;;;;;4969011;28;20250;-71
2022/02/07 14:40:19;;;;;;;13.57;2.47;;;;;;;;;;4966873;28;20246;-71
2022/02/07 14:42:46;;;;;;;7.37;1.83;;;;;;;;;;4985534;28;20325;-72
2022/02/07 14:50:12;;;;;;;9.87;2.27;;;;;;;;;;4976278;28;20230;-72
2022/02/07 14:52:38;;;;;;;6.07;1.63;;;;;;;;;;4969017;28;20269;-71
2022/02/07 14:55:06;;;;;;;8.70;2.50;;;;;;;;;;4974363;28;20226;-72
2022/02/07 14:57:34;;;;;;;7.03;2.07;;;;;;;;;;4987439;28;20234;-70
2022/02/07 15:00:00;;;;;;;8.50;1.93;;;;;;;;;;4970704;28;20214;-72
2022/02/07 15:02:25;;;;;;;10.37;2.27;;;;;;;;;;4973131;28;20233;-71
2022/02/07 15:04:56;;;;;;;9.93;2.20;;;;;;;;;;4957645;28;20606;-72
2022/02/07 15:07:22;;;;;;;11.57;2.33;;;;;;;;;;4988288;28;21197;-71
2022/02/07 15:09:48;;;;;;;9.50;2.27;;;;;;;;;;4973140;28;20287;-70
2022/02/07 15:12:16;;;;;;;9.13;2.20;;;;;;;;;;4958007;28;20241;-73
2022/02/07 15:14:49;;;;;;;10.43;2.37;;;;;;;;;;4975529;28;20218;-73
2022/02/07 15:17:20;;;;;;;11.33;2.97;;;;;;;;;;4971591;28;20245;-73
2022/02/07 15:19:54;;;;;;;13.93;4.67;;;;;;;;;;4940749;28;20285;-73
2022/02/07 15:22:23;;;;;;;9.57;2.87;;;;;;;;;;4937635;28;20253;-71
2022/02/07 15:24:49;;;;;;;16.83;5.57;;;;;;;;;;4969664;28;20246;-73
2022/02/07 15:27:15;;;;;;;11.53;3.67;;;;;;;;;;4971171;28;20600;-74
2022/02/07 15:29:44;;;;;;;14.30;3.73;;;;;;;;;;4974463;28;20222;-72
2022/02/07 15:34:53;;;;;;;11.60;3.20;;;;;;;;;;4943961;28;20275;-74
2022/02/07 15:37:21;;;;;;;12.33;3.43;;;;;;;;;;4940561;28;20285;-74
2022/02/07 15:39:49;;;;;;;12.40;3.17;;;;;;;;;;4962956;28;20723;-74
2022/02/07 15:42:15;;;;;;;16.13;3.43;;;;;;;;;;4950676;28;20226;-74
2022/02/07 15:44:42;;;;;;;12.97;2.83;;;;;;;;;;4970039;28;20230;-72
2022/02/07 15:47:08;;;;;;;12.03;3.50;;;;;;;;;;4973375;28;20222;-72
2022/02/07 15:49:34;;;;;;;12.13;2.60;;;;;;;;;;4972381;28;20601;-73
2022/02/07 15:52:00;;;;;;;14.07;3.00;;;;;;;;;;4969573;28;20658;-73
2022/02/07 15:54:27;;;;;;;13.40;2.90;;;;;;;;;;4953933;28;20297;-71
2022/02/07 15:56:56;;;;;;;12.30;3.30;;;;;;;;;;4969865;28;20206;-73
2022/02/07 15:59:24;;;;;;;10.47;2.70;;;;;;;;;;4972925;28;20233;-73
2022/02/07 16:01:49;;;;;;;11.60;4.57;;;;;;;;;;4972185;28;20230;-71
2022/02/07 16:04:22;;;;;;;12.77;4.47;;;;;;;;;;4972728;28;20222;-71
2022/02/07 16:06:49;;;;;;;15.03;3.53;;;;;;;;;;4951514;28;20693;-72
2022/02/07 16:09:17;;;;;;;8.07;3.40;;;;;;;;;;4959384;28;20288;-71
2022/02/07 16:11:43;;;;;;;12.07;3.63;;;;;;;;;;4988142;28;20250;-72
2022/02/07 16:14:11;;;;;;;11.10;2.87;;;;;;;;;;4973475;28;20226;-72
2022/02/07 16:16:40;;;;;;;16.33;3.20;;;;;;;;;;4973652;28;20778;-73
2022/02/07 16:19:10;;;;;;;8.97;2.50;;;;;;;;;;4956349;28;20218;-72
2022/02/07 16:21:35;;;;;;;19.40;7.13;;;;;;;;;;4955601;28;20242;-73
2022/02/07 16:24:03;;;;;;;14.73;3.80;;;;;;;;;;4934594;28;20925;-71
2022/02/07 16:26:29;;;;;;;13.87;3.40;;;;;;;;;;4965146;28;20242;-69
2022/02/07 16:28:55;;;;;;;15.20;3.47;;;;;;;;;;4947723;28;20715;-72
2022/02/07 16:31:23;;;;;;;14.07;3.03;;;;;;;;;;4954807;28;20222;-71
2022/02/07 16:33:48;;;;;;;13.13;3.17;;;;;;;;;;4939198;28;20714;-71
2022/02/07 16:36:15;;;;;;;6.50;2.40;;;;;;;;;;4969682;28;20225;-71
2022/02/07 16:38:41;;;;;;;9.77;3.07;;;;;;;;;;4951031;28;20687;-72
2022/02/07 16:41:11;;;;;;;9.97;2.60;;;;;;;;;;4969730;28;20236;-72
2022/02/07 16:43:41;;;;;;;11.73;2.70;;;;;;;;;;4954518;28;20276;-70
2022/02/07 16:46:27;;;;;;;10.80;2.30;;;;;;;;;;4962223;28;20230;-71
2022/02/07 16:48:55;;;;;;;14.37;3.10;;;;;;;;;;4970151;28;20876;-71
2022/02/07 16:51:21;;;;;;;10.67;2.60;;;;;;;;;;4939660;28;20313;-71
2022/02/07 16:53:54;;;;;;;16.27;4.73;;;;;;;;;;4968590;28;20298;-71
2022/02/07 16:56:22;;;;;;;12.83;3.03;;;;;;;;;;4939991;28;20249;-72
2022/02/07 16:58:47;;;;;;;12.83;3.17;;;;;;;;;;4954332;28;20237;-71
2022/02/07 17:01:16;;;;;;;17.53;3.07;;;;;;;;;;4953274;28;20223;-71
2022/02/07 17:03:44;;;;;;;15.03;3.03;;;;;;;;;;4950566;28;20885;-71
2022/02/07 17:06:15;;;;;;;16.73;3.77;;;;;;;;;;4950312;28;20300;-72
2022/02/07 17:08:45;;;;;;;12.50;3.17;;;;;;;;;;4968759;28;20269;-71
2022/02/07 17:11:11;;;;;;;15.67;3.00;;;;;;;;;;4936203;28;20257;-71
2022/02/07 17:13:39;;;;;;;14.77;2.80;;;;;;;;;;4962506;28;20236;-71
2022/02/07 17:16:09;;;;;;;12.57;3.27;;;;;;;;;;4937015;28;20230;-71
2022/02/07 17:18:35;;;;;;;14.77;3.80;;;;;;;;;;4955938;28;20245;-70
2022/02/07 17:21:00;;;;;;;11.00;3.37;;;;;;;;;;4987899;28;20724;-73
2022/02/07 17:23:31;;;;;;;19.53;5.53;;;;;;;;;;4954659;28;20242;-71
2022/02/07 17:25:59;;;;;;;13.43;4.10;;;;;;;;;;4956352;28;20246;-71
2022/02/07 17:28:25;;;;;;;22.50;6.07;;;;;;;;;;4951255;28;20480;-71
2022/02/07 17:30:57;;;;;;;18.50;4.60;;;;;;;;;;4954669;28;20308;-70
2022/02/07 17:33:25;;;;;;;14.60;4.20;;;;;;;;;;4971020;28;20285;-71
2022/02/07 17:35:54;;;;;;;21.53;4.37;;;;;;;;;;4973848;28;20230;-70